createdAt,value
2023-05-08T00:00:14.120Z,16.20
2023-05-08T00:02:42.991Z,15.75
2023-05-08T00:05:11.055Z,15.65
2023-05-08T00:07:39.224Z,15.47
2023-05-08T00:10:10.776Z,15.20
2023-05-08T00:12:38.904Z,15.20
2023-05-08T00:15:07.949Z,15.30
2023-05-08T00:17:35.770Z,15.55
2023-05-08T00:20:03.805Z,15.84
2023-05-08T00:22:31.562Z,15.68
2023-05-08T00:24:59.425Z,15.19
2023-05-08T00:27:28.582Z,14.96
2023-05-08T00:29:56.554Z,14.96
2023-05-08T00:32:24.557Z,14.71
2023-05-08T00:34:52.474Z,14.50
2023-05-08T00:37:20.277Z,14.45
2023-05-08T00:39:48.084Z,14.49
2023-05-08T00:42:17.823Z,14.23
2023-05-08T00:44:47.084Z,14.24
2023-05-08T00:47:15.468Z,14.43
2023-05-08T00:49:44.141Z,14.41
2023-05-08T00:52:13.260Z,14.53
2023-05-08T00:54:42.137Z,15.08
2023-05-08T00:57:09.989Z,14.81
2023-05-08T00:59:38.568Z,14.46
2023-05-08T01:02:08.178Z,14.20
2023-05-08T01:04:37.738Z,14.10
2023-05-08T01:07:05.769Z,14.22
2023-05-08T01:09:33.762Z,14.15
2023-05-08T01:12:11.574Z,14.07
2023-05-08T01:14:51.940Z,14.09
2023-05-08T01:17:28.337Z,14.15
2023-05-08T01:20:06.913Z,14.25
2023-05-08T01:23:10.276Z,14.26
2023-05-08T01:26:17.609Z,14.39
2023-05-08T01:29:27.709Z,14.43
2023-05-08T01:32:20.144Z,14.25
2023-05-08T01:34:55.171Z,14.19
2023-05-08T01:37:31.579Z,14.37
2023-05-08T01:40:08.932Z,14.27
2023-05-08T01:42:45.418Z,14.20
2023-05-08T01:45:18.211Z,14.26
2023-05-08T01:47:52.798Z,14.23
2023-05-08T01:50:27.030Z,14.26
2023-05-08T01:52:59.723Z,14.27
2023-05-08T01:55:31.607Z,14.22
2023-05-08T01:58:00.680Z,14.28
2023-05-08T02:00:29.294Z,14.31
2023-05-08T02:03:01.865Z,14.18
2023-05-08T02:05:30.288Z,14.36
2023-05-08T02:07:59.737Z,14.32
2023-05-08T02:10:29.200Z,14.17
2023-05-08T02:12:58.117Z,14.08
2023-05-08T02:15:28.680Z,14.07
2023-05-08T02:17:57.458Z,14.12
2023-05-08T02:20:28.808Z,14.18
2023-05-08T02:22:57.937Z,14.11
2023-05-08T02:25:26.975Z,14.19
2023-05-08T02:27:56.521Z,14.60
2023-05-08T02:30:27.422Z,14.93
2023-05-08T02:33:00.402Z,15.30
2023-05-08T02:35:32.266Z,15.41
2023-05-08T02:38:01.701Z,15.46
2023-05-08T02:40:31.089Z,15.62
2023-05-08T02:42:59.027Z,15.74
2023-05-08T02:45:33.797Z,15.77
2023-05-08T02:48:10.175Z,15.46
2023-05-08T02:50:52.146Z,15.51
2023-05-08T02:53:26.268Z,15.82
2023-05-08T02:55:58.037Z,15.80
2023-05-08T02:58:32.386Z,15.90
2023-05-08T03:01:06.489Z,15.89
2023-05-08T03:03:40.761Z,15.82
2023-05-08T03:06:14.672Z,15.50
2023-05-08T03:08:44.347Z,15.15
2023-05-08T03:11:16.122Z,15.10
2023-05-08T03:13:48.639Z,15.15
2023-05-08T03:16:21.692Z,15.25
2023-05-08T03:18:54.610Z,15.30
2023-05-08T03:21:28.223Z,15.35
2023-05-08T03:23:58.428Z,15.48
2023-05-08T03:26:27.301Z,15.51
2023-05-08T03:28:56.356Z,15.46
2023-05-08T03:31:29.372Z,15.37
2023-05-08T03:33:57.879Z,15.45
2023-05-08T03:36:28.822Z,15.20
2023-05-08T03:38:56.805Z,15.31
2023-05-08T03:41:26.494Z,15.15
2023-05-08T03:43:56.033Z,14.78
2023-05-08T03:46:25.044Z,14.91
2023-05-08T03:48:54.270Z,14.84
2023-05-08T03:51:23.604Z,14.80
2023-05-08T03:53:53.682Z,14.99
2023-05-08T03:56:22.083Z,15.05
2023-05-08T03:58:58.138Z,15.18
2023-05-08T04:01:33.227Z,14.80
2023-05-08T04:04:19.368Z,14.63
2023-05-08T04:06:52.172Z,14.83
2023-05-08T04:09:32.444Z,14.76
2023-05-08T04:12:06.199Z,14.78
2023-05-08T04:14:40.952Z,14.79
2023-05-08T04:17:11.767Z,14.82
2023-05-08T04:19:43.888Z,14.73
2023-05-08T04:22:13.877Z,14.58
2023-05-08T04:24:46.551Z,14.63
2023-05-08T04:27:15.143Z,14.61
2023-05-08T04:29:43.475Z,14.75
2023-05-08T04:32:12.071Z,14.77
2023-05-08T04:34:40.816Z,14.78
2023-05-08T04:37:08.913Z,14.72
2023-05-08T04:39:37.055Z,14.63
2023-05-08T04:42:06.551Z,14.70
2023-05-08T04:44:36.272Z,14.78
2023-05-08T04:47:04.195Z,14.85
2023-05-08T04:49:32.192Z,14.69
2023-05-08T04:52:00.055Z,14.47
2023-05-08T04:54:27.908Z,14.66
2023-05-08T04:56:55.668Z,14.84
2023-05-08T04:59:25.873Z,14.87
2023-05-08T05:01:53.742Z,14.95
2023-05-08T05:04:22.868Z,15.06
2023-05-08T05:06:50.676Z,14.74
2023-05-08T05:09:18.684Z,14.47
2023-05-08T05:11:46.759Z,14.56
2023-05-08T05:14:14.602Z,14.56
2023-05-08T05:16:43.801Z,14.49
2023-05-08T05:19:11.979Z,14.21
2023-05-08T05:21:40.554Z,14.28
2023-05-08T05:24:08.654Z,14.48
2023-05-08T05:26:37.351Z,14.55
2023-05-08T05:29:05.716Z,14.26
2023-05-08T05:31:33.992Z,14.25
2023-05-08T05:34:03.346Z,14.15
2023-05-08T05:36:31.386Z,14.34
2023-05-08T05:38:59.209Z,14.25
2023-05-08T05:41:27.039Z,14.17
2023-05-08T05:43:54.898Z,14.25
2023-05-08T05:46:28.079Z,14.08
2023-05-08T05:48:56.032Z,14.32
2023-05-08T05:51:25.215Z,13.93
2023-05-08T05:53:53.112Z,13.81
2023-05-08T05:56:21.583Z,13.79
2023-05-08T05:58:49.470Z,13.53
2023-05-08T06:01:17.539Z,13.81
2023-05-08T06:03:45.431Z,13.62
2023-05-08T06:06:13.625Z,13.62
2023-05-08T06:08:42.891Z,13.75
2023-05-08T06:11:10.735Z,13.94
2023-05-08T06:13:40.542Z,13.68
2023-05-08T06:16:09.285Z,13.61
2023-05-08T06:18:37.224Z,13.77
2023-05-08T06:21:05.355Z,13.49
2023-05-08T06:23:33.136Z,13.40
2023-05-08T06:26:02.359Z,13.25
2023-05-08T06:28:30.243Z,13.21
2023-05-08T06:30:58.148Z,13.31
2023-05-08T06:33:27.140Z,13.35
2023-05-08T06:35:54.992Z,13.54
2023-05-08T06:38:22.903Z,13.05
2023-05-08T06:40:50.779Z,13.51
2023-05-08T06:43:19.955Z,13.71
2023-05-08T06:45:47.780Z,13.81
2023-05-08T06:48:15.800Z,13.75
2023-05-08T06:50:43.591Z,13.91
2023-05-08T06:53:11.477Z,13.98
2023-05-08T06:55:39.225Z,14.01
2023-05-08T06:58:07.093Z,13.88
2023-05-08T07:00:36.364Z,13.82
2023-05-08T07:03:04.268Z,14.07
2023-05-08T07:05:32.089Z,14.10
2023-05-08T07:07:59.839Z,13.97
2023-05-08T07:10:27.606Z,13.98
2023-05-08T07:12:55.403Z,14.09
2023-05-08T07:15:26.539Z,14.07
2023-05-08T07:17:56.161Z,14.16
2023-05-08T07:20:24.441Z,14.01
2023-05-08T07:22:52.459Z,14.17
2023-05-08T07:25:20.612Z,14.13
2023-05-08T07:27:48.431Z,14.00
2023-05-08T07:30:16.673Z,13.85
2023-05-08T07:32:44.509Z,13.93
2023-05-08T07:35:13.877Z,14.23
2023-05-08T07:37:41.871Z,14.38
2023-05-08T07:40:10.114Z,14.13
2023-05-08T07:42:42.131Z,13.80
2023-05-08T07:45:11.788Z,14.19
2023-05-08T07:47:39.977Z,14.34
2023-05-08T07:50:08.481Z,14.47
2023-05-08T07:52:37.584Z,14.21
2023-05-08T07:55:06.263Z,14.61
2023-05-08T07:57:37.889Z,14.65
2023-05-08T08:00:06.876Z,15.07
2023-05-08T08:02:41.426Z,14.99
2023-05-08T08:05:10.045Z,15.32
2023-05-08T08:07:39.288Z,15.39
2023-05-08T08:10:08.757Z,15.32
2023-05-08T08:12:36.867Z,15.26
2023-05-08T08:15:05.285Z,15.30
2023-05-08T08:17:33.129Z,14.68
2023-05-08T08:20:01.134Z,14.32
2023-05-08T08:22:28.978Z,14.34
2023-05-08T08:24:58.146Z,14.66
2023-05-08T08:27:26.565Z,14.89
2023-05-08T08:30:04.539Z,14.90
2023-05-08T08:32:40.409Z,15.33
2023-05-08T08:35:09.223Z,15.13
2023-05-08T08:37:37.133Z,15.24
2023-05-08T08:40:07.786Z,15.52
2023-05-08T08:42:35.608Z,15.63
2023-05-08T08:45:03.664Z,15.78
2023-05-08T08:47:37.480Z,15.59
2023-05-08T08:50:06.341Z,15.81
2023-05-08T08:52:42.086Z,15.96
2023-05-08T08:55:16.457Z,16.50
2023-05-08T08:57:53.750Z,16.88
2023-05-08T09:00:23.411Z,16.82
2023-05-08T09:02:51.678Z,16.68
2023-05-08T09:05:19.761Z,16.90
2023-05-08T09:07:48.728Z,16.81
2023-05-08T09:10:18.320Z,16.77
2023-05-08T09:12:46.150Z,16.30
2023-05-08T09:15:14.220Z,16.38
2023-05-08T09:17:42.389Z,16.30
2023-05-08T09:20:11.845Z,16.08
2023-05-08T09:22:40.012Z,16.51
2023-05-08T09:25:08.704Z,16.15
2023-05-08T09:27:38.388Z,16.16
2023-05-08T09:30:07.921Z,16.10
2023-05-08T09:32:36.945Z,15.89
2023-05-08T09:35:06.429Z,15.72
2023-05-08T09:37:39.901Z,16.44
2023-05-08T09:40:18.532Z,16.26
2023-05-08T09:42:48.680Z,16.20
2023-05-08T09:45:31.040Z,16.56
2023-05-08T09:47:59.179Z,16.99
2023-05-08T09:50:27.712Z,17.22
2023-05-08T09:52:55.779Z,17.68
2023-05-08T09:55:23.708Z,17.67
2023-05-08T09:57:57.889Z,17.63
2023-05-08T10:00:26.725Z,17.61
2023-05-08T10:02:59.594Z,17.97
2023-05-08T10:05:30.090Z,17.99
2023-05-08T10:07:58.513Z,18.11
2023-05-08T10:10:27.796Z,17.41
2023-05-08T10:12:59.346Z,17.67
2023-05-08T10:15:30.906Z,18.15
2023-05-08T10:18:05.286Z,18.59
2023-05-08T10:20:34.775Z,18.70
2023-05-08T10:23:04.320Z,19.12
2023-05-08T10:25:34.253Z,19.10
2023-05-08T10:28:11.750Z,18.68
2023-05-08T10:30:44.640Z,18.83
2023-05-08T10:33:15.784Z,18.71
2023-05-08T10:35:44.326Z,18.63
2023-05-08T10:38:12.727Z,18.70
2023-05-08T10:40:40.836Z,19.12
2023-05-08T10:43:11.285Z,19.01
2023-05-08T10:45:40.161Z,18.47
2023-05-08T10:48:17.445Z,18.48
2023-05-08T10:51:02.273Z,18.30
2023-05-08T10:53:38.050Z,18.87
2023-05-08T10:56:06.736Z,18.97
2023-05-08T10:58:39.194Z,18.79
2023-05-08T11:01:17.801Z,18.33
2023-05-08T11:03:47.657Z,18.79
2023-05-08T11:06:16.322Z,19.19
2023-05-08T11:08:52.108Z,19.24
2023-05-08T11:11:29.253Z,19.06
2023-05-08T11:14:10.760Z,19.12
2023-05-08T11:17:07.947Z,18.89
2023-05-08T11:19:37.158Z,18.85
2023-05-08T11:22:26.029Z,19.05
2023-05-08T11:24:59.097Z,19.04
2023-05-08T11:27:39.798Z,19.54
2023-05-08T11:30:23.235Z,19.26
2023-05-08T11:33:14.489Z,19.54
2023-05-08T11:35:44.260Z,19.91
2023-05-08T11:38:20.797Z,19.79
2023-05-08T11:40:50.396Z,19.86
2023-05-08T11:43:27.104Z,19.98
2023-05-08T11:46:01.858Z,19.78
2023-05-08T11:48:29.913Z,19.94
2023-05-08T11:50:58.026Z,19.75
2023-05-08T11:53:31.286Z,19.52
2023-05-08T11:56:00.585Z,19.25
2023-05-08T11:58:28.543Z,19.31
2023-05-08T12:00:58.047Z,18.96
2023-05-08T12:03:26.614Z,18.86
2023-05-08T12:06:00.196Z,19.19
2023-05-08T12:08:28.417Z,18.89
2023-05-08T12:10:58.775Z,19.38
2023-05-08T12:13:28.162Z,19.21
2023-05-08T12:16:01.908Z,19.78
2023-05-08T12:18:30.876Z,19.90
2023-05-08T12:21:00.803Z,19.53
2023-05-08T12:23:29.989Z,19.49
2023-05-08T12:26:02.876Z,19.70
2023-05-08T12:28:32.308Z,19.74
2023-05-08T12:31:01.823Z,20.04
2023-05-08T12:33:30.512Z,20.00
2023-05-08T12:35:58.904Z,19.93
2023-05-08T12:38:27.862Z,19.86
2023-05-08T12:40:56.640Z,19.73
2023-05-08T12:43:33.013Z,19.92
2023-05-08T12:46:02.813Z,19.85
2023-05-08T12:48:31.285Z,19.25
2023-05-08T12:51:04.244Z,19.32
2023-05-08T12:53:33.957Z,19.54
2023-05-08T12:56:04.538Z,19.31
2023-05-08T12:58:33.888Z,19.64
2023-05-08T13:01:12.940Z,19.58
2023-05-08T13:03:42.028Z,19.60
2023-05-08T13:06:21.032Z,19.57
2023-05-08T13:08:54.650Z,19.38
2023-05-08T13:11:30.654Z,19.27
2023-05-08T13:13:58.532Z,19.22
2023-05-08T13:16:27.839Z,19.10
2023-05-08T13:18:55.668Z,18.88
2023-05-08T13:21:25.133Z,18.93
2023-05-08T13:23:54.318Z,18.92
2023-05-08T13:26:24.398Z,18.82
2023-05-08T13:28:54.069Z,18.89
2023-05-08T13:31:23.981Z,19.20
2023-05-08T13:33:53.468Z,19.18
2023-05-08T13:36:21.515Z,19.40
2023-05-08T13:38:51.336Z,19.48
2023-05-08T13:41:19.257Z,19.46
2023-05-08T13:43:48.129Z,19.35
2023-05-08T13:46:16.090Z,19.21
2023-05-08T13:48:43.956Z,19.19
2023-05-08T13:51:13.137Z,18.67
2023-05-08T13:53:40.991Z,18.58
2023-05-08T13:56:08.957Z,18.79
2023-05-08T13:58:36.797Z,18.62
2023-05-08T14:01:17.456Z,18.41
2023-05-08T14:03:46.024Z,18.42
2023-05-08T14:06:15.309Z,18.40
2023-05-08T14:08:46.465Z,18.17
2023-05-08T14:11:15.605Z,17.97
2023-05-08T14:13:43.390Z,17.77
2023-05-08T14:16:12.938Z,18.01
2023-05-08T14:18:40.934Z,18.14
2023-05-08T14:21:08.806Z,17.85
2023-05-08T14:23:38.812Z,17.60
2023-05-08T14:26:06.692Z,17.47
2023-05-08T14:28:34.584Z,17.53
2023-05-08T14:31:02.564Z,17.28
2023-05-08T14:33:30.605Z,17.58
2023-05-08T14:35:59.560Z,17.82
2023-05-08T14:38:27.390Z,17.64
2023-05-08T14:40:56.669Z,17.62
2023-05-08T14:43:24.487Z,17.78
2023-05-08T14:45:52.330Z,17.66
2023-05-08T14:48:20.240Z,17.48
2023-05-08T14:50:51.192Z,17.52
2023-05-08T14:53:19.156Z,17.53
2023-05-08T14:55:47.307Z,17.20
2023-05-08T14:58:16.771Z,17.36
2023-05-08T15:00:44.678Z,17.34
2023-05-08T15:03:12.684Z,17.35
2023-05-08T15:05:40.670Z,17.51
2023-05-08T15:08:09.684Z,17.44
2023-05-08T15:10:37.721Z,17.38
2023-05-08T15:13:05.796Z,17.54
2023-05-08T15:15:34.987Z,17.62
2023-05-08T15:18:02.857Z,17.98
2023-05-08T15:20:30.735Z,18.17
2023-05-08T15:22:58.532Z,18.63
2023-05-08T15:25:26.556Z,18.53
2023-05-08T15:27:54.386Z,18.58
2023-05-08T15:30:22.772Z,18.74
2023-05-08T15:32:52.765Z,18.40
2023-05-08T15:35:20.636Z,18.54
2023-05-08T15:37:48.444Z,18.57
2023-05-08T15:40:16.675Z,18.44
2023-05-08T15:42:44.465Z,18.34
2023-05-08T15:45:12.696Z,18.35
2023-05-08T15:47:40.661Z,18.54
2023-05-08T15:50:10.675Z,18.70
2023-05-08T15:52:38.581Z,18.75
2023-05-08T15:55:07.131Z,19.00
2023-05-08T15:57:35.053Z,19.08
2023-05-08T16:00:05.789Z,18.42
2023-05-08T16:02:33.725Z,17.95
2023-05-08T16:05:01.636Z,18.13
2023-05-08T16:07:30.794Z,17.90
2023-05-08T16:09:58.584Z,17.81
2023-05-08T16:12:26.585Z,17.70
2023-05-08T16:14:54.468Z,17.56
2023-05-08T16:17:22.368Z,17.55
2023-05-08T16:19:50.458Z,17.47
2023-05-08T16:22:18.260Z,17.36
2023-05-08T16:24:47.505Z,17.22
2023-05-08T16:27:15.792Z,17.18
2023-05-08T16:29:43.693Z,17.03
2023-05-08T16:32:11.778Z,16.91
2023-05-08T16:34:39.824Z,16.49
2023-05-08T16:37:07.821Z,16.50
2023-05-08T16:39:36.023Z,16.49
2023-05-08T16:42:06.298Z,16.57
2023-05-08T16:44:34.572Z,16.65
2023-05-08T16:47:02.928Z,16.66
2023-05-08T16:49:30.985Z,16.56
2023-05-08T16:52:00.439Z,16.52
2023-05-08T16:54:28.639Z,16.55
2023-05-08T16:56:56.564Z,16.54
2023-05-08T16:59:26.044Z,16.57
2023-05-08T17:01:56.935Z,16.46
2023-05-08T17:04:30.721Z,16.47
2023-05-08T17:07:00.006Z,16.50
2023-05-08T17:09:28.562Z,16.30
2023-05-08T17:11:58.198Z,16.32
2023-05-08T17:14:27.660Z,16.22
2023-05-08T17:16:55.494Z,16.13
2023-05-08T17:19:23.330Z,16.14
2023-05-08T17:21:51.258Z,16.15
2023-05-08T17:24:19.592Z,16.07
2023-05-08T17:26:47.388Z,16.13
2023-05-08T17:29:15.150Z,16.29
2023-05-08T17:31:44.601Z,16.65
2023-05-08T17:34:12.503Z,16.69
2023-05-08T17:36:40.561Z,16.91
2023-05-08T17:39:08.439Z,17.17
2023-05-08T17:41:36.290Z,17.00
2023-05-08T17:44:04.580Z,16.72
2023-05-08T17:46:32.405Z,16.80
2023-05-08T17:49:01.626Z,16.71
2023-05-08T17:51:29.545Z,16.77
2023-05-08T17:53:57.462Z,16.59
2023-05-08T17:56:25.768Z,16.39
2023-05-08T17:58:55.370Z,16.11
2023-05-08T18:01:23.317Z,16.15
2023-05-08T18:03:51.239Z,15.97
2023-05-08T18:06:20.714Z,15.91
2023-05-08T18:08:48.941Z,15.81
2023-05-08T18:11:17.955Z,15.67
2023-05-08T18:13:45.870Z,15.59
2023-05-08T18:16:15.803Z,15.59
2023-05-08T18:18:43.726Z,15.53
2023-05-08T18:21:11.714Z,15.55
2023-05-08T18:23:41.850Z,15.45
2023-05-08T18:26:13.567Z,15.38
2023-05-08T18:28:41.323Z,15.27
2023-05-08T18:31:09.194Z,15.09
2023-05-08T18:33:37.391Z,15.04
2023-05-08T18:36:06.884Z,15.02
2023-05-08T18:38:35.628Z,14.93
2023-05-08T18:41:06.169Z,14.87
2023-05-08T18:43:34.682Z,14.77
2023-05-08T18:46:09.410Z,14.74
2023-05-08T18:48:37.388Z,14.76
2023-05-08T18:51:06.311Z,14.73
2023-05-08T18:53:38.096Z,14.71
2023-05-08T18:56:07.776Z,14.67
2023-05-08T18:58:35.681Z,14.64
2023-05-08T19:01:03.729Z,14.58
2023-05-08T19:03:31.865Z,14.59
2023-05-08T19:06:00.019Z,14.58
2023-05-08T19:08:28.037Z,14.57
2023-05-08T19:10:56.406Z,14.56
2023-05-08T19:13:25.981Z,14.54
2023-05-08T19:15:57.246Z,14.44
2023-05-08T19:18:25.204Z,14.45
2023-05-08T19:20:53.291Z,14.46
2023-05-08T19:23:21.246Z,14.40
2023-05-08T19:25:49.064Z,14.34
2023-05-08T19:28:17.041Z,14.25
2023-05-08T19:30:46.298Z,14.18
2023-05-08T19:33:14.242Z,14.18
2023-05-08T19:35:42.091Z,14.07
2023-05-08T19:38:09.888Z,14.06
2023-05-08T19:40:48.301Z,13.98
2023-05-08T19:43:24.134Z,13.97
2023-05-08T19:45:53.702Z,13.91
2023-05-08T19:48:21.772Z,13.81
2023-05-08T19:50:50.582Z,13.80
2023-05-08T19:53:19.801Z,13.74
2023-05-08T19:55:49.270Z,13.75
2023-05-08T19:58:18.578Z,13.77
2023-05-08T20:00:51.034Z,13.76
2023-05-08T20:03:21.119Z,13.76
2023-05-08T20:05:49.438Z,13.80
2023-05-08T20:08:17.518Z,13.80
2023-05-08T20:10:49.050Z,13.74
2023-05-08T20:13:16.975Z,13.74
2023-05-08T20:15:44.921Z,13.74
2023-05-08T20:18:12.814Z,13.74
2023-05-08T20:20:41.929Z,13.68
2023-05-08T20:23:10.378Z,13.64
2023-05-08T20:25:38.170Z,13.59
2023-05-08T20:28:05.955Z,13.55
2023-05-08T20:30:33.795Z,13.55
2023-05-08T20:33:04.843Z,13.60
2023-05-08T20:35:33.054Z,13.68
2023-05-08T20:38:02.241Z,13.64
2023-05-08T20:40:30.045Z,13.60
2023-05-08T20:42:57.843Z,13.55
2023-05-08T20:45:25.905Z,13.45
2023-05-08T20:47:53.754Z,13.41
2023-05-08T20:50:21.643Z,13.39
2023-05-08T20:52:49.732Z,13.34
2023-05-08T20:55:19.485Z,13.28
2023-05-08T20:57:47.282Z,13.21
2023-05-08T21:00:39.944Z,13.16
2023-05-08T21:03:07.840Z,13.10
2023-05-08T21:05:35.657Z,13.05
2023-05-08T21:08:06.091Z,13.02
2023-05-08T21:10:35.256Z,12.90
2023-05-08T21:13:03.577Z,12.80
2023-05-08T21:15:31.538Z,12.60
2023-05-08T21:17:59.371Z,12.63
2023-05-08T21:20:27.217Z,12.59
2023-05-08T21:22:55.235Z,12.54
2023-05-08T21:25:23.562Z,12.52
2023-05-08T21:27:55.151Z,12.45
2023-05-08T21:30:23.246Z,12.28
2023-05-08T21:32:51.330Z,12.20
2023-05-08T21:35:19.218Z,12.13
2023-05-08T21:37:46.998Z,12.08
2023-05-08T21:40:14.818Z,12.00
2023-05-08T21:42:42.580Z,11.87
2023-05-08T21:45:12.856Z,11.75
2023-05-08T21:47:40.909Z,11.65
2023-05-08T21:50:10.045Z,11.52
2023-05-08T21:52:37.938Z,11.35
2023-05-08T21:55:08.664Z,11.38
2023-05-08T21:57:36.600Z,11.42
2023-05-08T22:00:05.793Z,11.39
2023-05-08T22:02:37.897Z,11.40
2023-05-08T22:05:07.541Z,11.35
2023-05-08T22:07:35.614Z,11.24
2023-05-08T22:10:03.976Z,11.20
2023-05-08T22:12:31.961Z,11.22
2023-05-08T22:14:59.757Z,11.16
2023-05-08T22:17:27.666Z,11.15
2023-05-08T22:19:56.901Z,11.10
2023-05-08T22:22:24.787Z,11.09
2023-05-08T22:24:52.749Z,11.18
2023-05-08T22:27:20.499Z,11.22
2023-05-08T22:29:48.337Z,11.16
2023-05-08T22:32:16.247Z,11.22
2023-05-08T22:34:44.113Z,11.17
2023-05-08T22:37:13.268Z,11.10
2023-05-08T22:39:41.050Z,11.06
2023-05-08T22:42:08.850Z,10.97
2023-05-08T22:44:37.778Z,10.95
2023-05-08T22:47:06.194Z,10.93
2023-05-08T22:49:34.634Z,10.88
2023-05-08T22:52:02.471Z,11.03
2023-05-08T22:54:31.636Z,12.18
2023-05-08T22:56:59.507Z,12.90
2023-05-08T22:59:27.771Z,13.45
2023-05-08T23:01:55.610Z,13.45
2023-05-08T23:04:23.434Z,13.96
2023-05-08T23:06:51.215Z,14.02
2023-05-08T23:09:19.025Z,13.41
2023-05-08T23:11:49.683Z,12.92
2023-05-08T23:14:17.470Z,12.73
2023-05-08T23:16:45.349Z,12.59
2023-05-08T23:19:13.241Z,12.46
2023-05-08T23:21:41.402Z,12.46
2023-05-08T23:24:09.483Z,12.36
2023-05-08T23:26:37.375Z,12.14
2023-05-08T23:29:06.581Z,12.18
2023-05-08T23:31:34.406Z,12.04
2023-05-08T23:34:02.300Z,12.11
2023-05-08T23:36:30.154Z,12.02
2023-05-08T23:38:58.011Z,12.09
2023-05-08T23:41:26.551Z,12.24
2023-05-08T23:43:54.739Z,12.24
2023-05-08T23:46:24.031Z,12.22
2023-05-08T23:48:52.025Z,12.08
2023-05-08T23:51:19.927Z,11.97
2023-05-08T23:53:48.186Z,11.93
2023-05-08T23:56:16.138Z,12.02
2023-05-08T23:58:43.987Z,11.91
